Time;durP1;ratioP1;P1;durP2;ratioP2;P2;SDS_P1;SDS_P2;PMS_P1;PMS_P2;Temp;Humidity;BMP_temperature;BMP_pressure;BME280_temperature;BME280_humidity;BME280_pressure;Samples;Min_cycle;Max_cycle;Signal;HPM_P1;HPM_P2
2023/12/15 00:00:32;;;;;;;;;;;19.80;45.80;;;;;;5097384;28;19927;-63
2023/12/15 00:02:58;;;;;;;;;;;19.80;45.80;;;;;;5099427;28;20604;-63
2023/12/15 00:05:27;;;;;;;;;;;19.80;45.80;;;;;;5108467;28;19938;-63
2023/12/15 00:07:53;;;;;;;;;;;19.80;45.70;;;;;;5095142;28;19930;-62
2023/12/15 00:10:20;;;;;;;;;;;19.80;45.70;;;;;;5115285;28;19927;-63
2023/12/15 00:12:47;;;;;;;;;;;19.80;45.70;;;;;;5107672;27;20419;-62
2023/12/15 00:15:14;;;;;;;;;;;19.80;45.70;;;;;;5115886;28;20313;-63
2023/12/15 00:17:41;;;;;;;;;;;19.80;45.70;;;;;;5094358;28;20147;-62
2023/12/15 00:20:08;;;;;;;;;;;19.80;45.70;;;;;;5098039;28;19923;-63
2023/12/15 00:22:36;;;;;;;;;;;19.80;45.70;;;;;;5092955;28;19924;-63
2023/12/15 00:25:03;;;;;;;;;;;19.80;45.70;;;;;;5099610;28;19923;-63
2023/12/15 00:27:30;;;;;;;;;;;19.80;45.60;;;;;;5100507;28;19923;-63
2023/12/15 00:29:57;;;;;;;;;;;19.80;45.70;;;;;;5101849;28;19931;-63
2023/12/15 00:32:24;;;;;;;;;;;19.80;45.70;;;;;;5105514;28;19977;-63
2023/12/15 00:34:52;;;;;;;;;;;19.80;45.60;;;;;;5108455;28;19923;-63
2023/12/15 00:37:20;;;;;;;;;;;19.80;45.60;;;;;;5097716;28;19924;-63
2023/12/15 00:39:48;;;;;;;;;;;19.80;45.60;;;;;;5112724;28;19924;-63
2023/12/15 00:42:15;;;;;;;;;;;19.80;45.50;;;;;;5097541;28;19973;-63
2023/12/15 00:44:41;;;;;;;;;;;19.80;45.50;;;;;;5115243;28;19929;-63
2023/12/15 00:47:08;;;;;;;;;;;19.80;45.50;;;;;;5098683;28;19959;-63
2023/12/15 00:49:35;;;;;;;;;;;19.80;45.50;;;;;;5100293;28;19931;-63
2023/12/15 00:52:02;;;;;;;;;;;19.80;45.50;;;;;;5088055;28;19924;-63
2023/12/15 00:54:28;;;;;;;;;;;19.80;45.40;;;;;;5105541;28;19969;-63
2023/12/15 00:56:56;;;;;;;;;;;19.80;45.50;;;;;;5104863;28;19924;-63
2023/12/15 00:59:23;;;;;;;;;;;19.80;45.40;;;;;;5090624;28;19931;-63
2023/12/15 01:01:50;;;;;;;;;;;19.80;45.40;;;;;;5114757;28;19924;-62
2023/12/15 01:04:16;;;;;;;;;;;19.80;45.40;;;;;;5102482;28;19974;-63
2023/12/15 01:06:43;;;;;;;;;;;19.80;45.40;;;;;;5101719;28;19935;-63
2023/12/15 01:09:10;;;;;;;;;;;19.80;45.40;;;;;;5100052;28;19924;-62
2023/12/15 01:11:37;;;;;;;;;;;19.80;45.40;;;;;;5096664;28;19924;-63
2023/12/15 01:14:05;;;;;;;;;;;19.80;45.40;;;;;;5113574;28;19924;-62
2023/12/15 01:16:32;;;;;;;;;;;19.80;45.40;;;;;;5104042;28;19935;-63
2023/12/15 01:18:58;;;;;;;;;;;19.80;45.40;;;;;;5101930;28;19923;-63
2023/12/15 01:21:25;;;;;;;;;;;19.80;45.40;;;;;;5097861;28;19930;-61
2023/12/15 01:23:52;;;;;;;;;;;19.80;45.40;;;;;;5110228;28;19927;-63
2023/12/15 01:26:19;;;;;;;;;;;19.80;45.40;;;;;;5114600;27;19920;-62
2023/12/15 01:28:45;;;;;;;;;;;19.80;45.40;;;;;;5095319;28;19931;-62
2023/12/15 01:31:13;;;;;;;;;;;19.80;45.40;;;;;;5113860;28;19924;-63
2023/12/15 01:33:40;;;;;;;;;;;19.70;45.30;;;;;;5100779;28;19923;-62
2023/12/15 01:36:07;;;;;;;;;;;19.80;45.40;;;;;;5110381;28;19923;-63
2023/12/15 01:38:34;;;;;;;;;;;19.70;45.40;;;;;;5111812;27;19932;-62
2023/12/15 01:41:01;;;;;;;;;;;19.70;45.30;;;;;;5101972;28;19924;-62
2023/12/15 01:43:27;;;;;;;;;;;19.80;45.40;;;;;;5098881;28;19973;-62
2023/12/15 01:45:54;;;;;;;;;;;19.80;45.40;;;;;;5077726;28;19928;-63
2023/12/15 01:48:22;;;;;;;;;;;19.70;45.30;;;;;;5098034;28;19986;-62
2023/12/15 01:50:49;;;;;;;;;;;19.70;45.30;;;;;;5113475;27;19924;-63
2023/12/15 01:53:16;;;;;;;;;;;19.80;45.40;;;;;;5112796;28;19931;-63
2023/12/15 01:55:42;;;;;;;;;;;19.80;45.40;;;;;;5108223;28;19963;-62
2023/12/15 01:58:10;;;;;;;;;;;19.70;45.30;;;;;;5111046;28;19946;-62
2023/12/15 02:00:36;;;;;;;;;;;19.70;45.30;;;;;;5103254;28;19924;-63
2023/12/15 02:03:03;;;;;;;;;;;19.70;45.30;;;;;;5098081;28;19927;-63
2023/12/15 02:05:31;;;;;;;;;;;19.70;45.30;;;;;;5095034;28;19928;-63
2023/12/15 02:07:59;;;;;;;;;;;19.70;45.20;;;;;;5100750;28;19930;-63
2023/12/15 02:10:25;;;;;;;;;;;19.70;45.30;;;;;;5089642;27;19932;-63
2023/12/15 02:12:52;;;;;;;;;;;19.70;45.20;;;;;;5096378;28;19931;-63
2023/12/15 02:15:19;;;;;;;;;;;19.70;45.20;;;;;;5102460;28;19955;-63
2023/12/15 02:17:46;;;;;;;;;;;19.80;45.30;;;;;;5096383;28;19928;-62
2023/12/15 02:20:12;;;;;;;;;;;19.70;45.20;;;;;;5113231;28;19928;-62
2023/12/15 02:22:41;;;;;;;;;;;19.70;45.20;;;;;;5099846;28;19927;-63
2023/12/15 02:25:08;;;;;;;;;;;19.70;45.20;;;;;;5101552;28;19928;-63
2023/12/15 02:27:34;;;;;;;;;;;19.70;45.20;;;;;;5100491;27;19932;-62
2023/12/15 02:30:01;;;;;;;;;;;19.70;45.20;;;;;;5103119;27;20030;-62
2023/12/15 02:32:28;;;;;;;;;;;19.70;45.20;;;;;;5120064;27;19924;-63
2023/12/15 02:34:56;;;;;;;;;;;19.70;45.20;;;;;;5099952;27;19934;-63
2023/12/15 02:37:23;;;;;;;;;;;19.70;45.20;;;;;;5121397;27;19943;-63
2023/12/15 02:39:51;;;;;;;;;;;19.70;45.20;;;;;;5100915;28;19923;-63
2023/12/15 02:42:17;;;;;;;;;;;19.70;45.20;;;;;;5113552;27;19920;-63
2023/12/15 02:44:44;;;;;;;;;;;19.70;45.10;;;;;;5108081;27;19962;-60
2023/12/15 02:47:11;;;;;;;;;;;19.70;45.10;;;;;;5104892;27;19932;-60
2023/12/15 02:49:38;;;;;;;;;;;19.70;45.10;;;;;;5122622;27;19932;-61
2023/12/15 02:52:06;;;;;;;;;;;19.70;45.10;;;;;;5123295;27;19963;-60
2023/12/15 02:54:33;;;;;;;;;;;19.70;45.10;;;;;;5106304;27;19924;-61
2023/12/15 02:57:01;;;;;;;;;;;19.70;45.10;;;;;;5119737;27;19927;-60
2023/12/15 02:59:27;;;;;;;;;;;19.70;45.10;;;;;;5099290;28;19989;-61
2023/12/15 03:01:54;;;;;;;;;;;19.70;45.70;;;;;;5100383;27;20187;-60
2023/12/15 03:04:21;;;;;;;;;;;19.70;45.10;;;;;;5111886;27;19936;-61
2023/12/15 03:06:47;;;;;;;;;;;19.70;45.10;;;;;;5103098;28;19919;-61
2023/12/15 03:09:14;;;;;;;;;;;19.70;45.10;;;;;;5122842;27;19927;-61
2023/12/15 03:11:41;;;;;;;;;;;19.70;45.00;;;;;;5123791;27;19931;-61
2023/12/15 03:14:09;;;;;;;;;;;19.70;45.60;;;;;;5115163;27;19931;-61
2023/12/15 03:16:36;;;;;;;;;;;19.70;45.10;;;;;;5097928;28;19928;-61
2023/12/15 03:19:03;;;;;;;;;;;19.70;45.00;;;;;;5104715;27;19973;-61
2023/12/15 03:21:29;;;;;;;;;;;19.70;45.00;;;;;;5105350;28;19930;-61
2023/12/15 03:23:56;;;;;;;;;;;19.70;45.00;;;;;;5119331;27;19928;-61
2023/12/15 03:26:23;;;;;;;;;;;19.70;45.00;;;;;;5104584;28;19923;-61
2023/12/15 03:28:50;;;;;;;;;;;19.70;45.10;;;;;;5102866;28;19924;-61
2023/12/15 03:31:18;;;;;;;;;;;19.70;45.00;;;;;;5117116;28;19947;-61
2023/12/15 03:33:45;;;;;;;;;;;19.70;45.10;;;;;;5101518;28;19939;-61
2023/12/15 03:36:12;;;;;;;;;;;19.70;45.00;;;;;;5105418;28;19976;-61
2023/12/15 03:38:38;;;;;;;;;;;19.70;45.10;;;;;;5120785;28;19931;-60
2023/12/15 03:41:05;;;;;;;;;;;19.70;45.10;;;;;;5108568;28;19927;-61
2023/12/15 03:43:32;;;;;;;;;;;19.70;45.00;;;;;;5102740;28;19924;-60
2023/12/15 03:45:58;;;;;;;;;;;19.70;45.10;;;;;;5121557;28;19924;-60
2023/12/15 03:48:27;;;;;;;;;;;19.70;45.10;;;;;;5097780;28;19928;-61
2023/12/15 03:50:54;;;;;;;;;;;19.70;45.10;;;;;;5097811;28;19970;-61
2023/12/15 03:53:21;;;;;;;;;;;19.70;45.00;;;;;;5119400;28;19924;-61
2023/12/15 03:55:48;;;;;;;;;;;19.70;45.00;;;;;;5120273;28;19927;-61
2023/12/15 03:58:15;;;;;;;;;;;19.70;45.00;;;;;;5104014;28;19973;-62
2023/12/15 04:00:41;;;;;;;;;;;19.70;45.00;;;;;;5107188;28;19953;-61
2023/12/15 04:03:08;;;;;;;;;;;19.70;45.00;;;;;;5107937;28;19930;-62
2023/12/15 04:05:37;;;;;;;;;;;19.70;45.00;;;;;;5106010;28;19992;-62
2023/12/15 04:08:03;;;;;;;;;;;19.70;45.00;;;;;;5103974;28;19931;-61
2023/12/15 04:10:30;;;;;;;;;;;19.70;45.00;;;;;;5091559;28;19923;-61
2023/12/15 04:12:57;;;;;;;;;;;19.70;45.00;;;;;;5101697;28;20162;-62
2023/12/15 04:15:23;;;;;;;;;;;19.70;45.10;;;;;;5123066;28;19927;-61
2023/12/15 04:17:50;;;;;;;;;;;19.70;45.10;;;;;;5120170;28;19931;-61
2023/12/15 04:20:17;;;;;;;;;;;19.70;45.10;;;;;;5118107;28;19924;-62
2023/12/15 04:22:45;;;;;;;;;;;19.70;45.10;;;;;;5101970;28;19924;-61
2023/12/15 04:25:12;;;;;;;;;;;19.70;45.20;;;;;;5113989;28;19976;-62
2023/12/15 04:27:39;;;;;;;;;;;19.70;45.20;;;;;;5097943;28;19930;-62
2023/12/15 04:30:06;;;;;;;;;;;19.70;45.20;;;;;;5113489;28;19950;-62
2023/12/15 04:32:33;;;;;;;;;;;19.70;45.20;;;;;;5116184;28;19980;-61
2023/12/15 04:35:00;;;;;;;;;;;19.70;45.30;;;;;;5099923;28;19953;-61
2023/12/15 04:37:26;;;;;;;;;;;19.70;45.30;;;;;;5108906;27;19958;-61
2023/12/15 04:39:54;;;;;;;;;;;19.70;45.30;;;;;;5114274;28;19931;-62
2023/12/15 04:42:21;;;;;;;;;;;19.70;45.30;;;;;;5104621;28;19931;-62
2023/12/15 04:44:48;;;;;;;;;;;19.70;45.30;;;;;;5098926;28;19928;-62
2023/12/15 04:47:15;;;;;;;;;;;19.70;45.30;;;;;;5102885;27;19976;-62
2023/12/15 04:49:41;;;;;;;;;;;19.70;45.30;;;;;;5115394;27;20331;-61
2023/12/15 04:52:08;;;;;;;;;;;19.70;45.30;;;;;;5108362;28;19981;-61
2023/12/15 04:54:37;;;;;;;;;;;19.70;45.40;;;;;;5108357;27;20134;-61
2023/12/15 04:57:05;;;;;;;;;;;19.70;45.40;;;;;;5122322;27;19924;-62
2023/12/15 04:59:39;;;;;;;;;;;19.70;45.40;;;;;;5105561;28;19931;-62
2023/12/15 05:02:06;;;;;;;;;;;19.70;45.40;;;;;;5116448;27;19923;-61
2023/12/15 05:04:33;;;;;;;;;;;19.70;45.40;;;;;;5101114;28;19923;-61
2023/12/15 05:07:00;;;;;;;;;;;19.70;45.40;;;;;;5103313;28;19973;-62
2023/12/15 05:09:27;;;;;;;;;;;19.70;45.40;;;;;;5104001;28;19942;-62
2023/12/15 05:11:54;;;;;;;;;;;19.70;45.40;;;;;;5113991;28;19924;-61
2023/12/15 05:14:22;;;;;;;;;;;19.70;45.40;;;;;;5121304;27;19924;-62
2023/12/15 05:16:49;;;;;;;;;;;19.70;45.40;;;;;;5106292;28;19928;-61
2023/12/15 05:19:16;;;;;;;;;;;19.70;45.40;;;;;;5107184;27;19976;-62
2023/12/15 05:21:42;;;;;;;;;;;19.70;45.40;;;;;;5109891;28;20125;-61
2023/12/15 05:24:09;;;;;;;;;;;19.70;45.40;;;;;;5118022;27;19927;-61
2023/12/15 05:26:36;;;;;;;;;;;19.70;45.40;;;;;;5103640;28;19950;-61
2023/12/15 05:29:03;;;;;;;;;;;19.70;45.40;;;;;;5107192;27;19936;-62
2023/12/15 05:31:31;;;;;;;;;;;19.70;45.40;;;;;;5125218;27;19928;-61
2023/12/15 05:33:58;;;;;;;;;;;19.70;45.40;;;;;;5122590;27;19949;-61
2023/12/15 05:36:24;;;;;;;;;;;19.70;45.40;;;;;;5102801;27;19957;-61
2023/12/15 05:38:52;;;;;;;;;;;19.70;45.40;;;;;;5107610;27;19931;-61
2023/12/15 05:41:19;;;;;;;;;;;19.70;45.40;;;;;;5104857;27;19923;-61
2023/12/15 05:43:46;;;;;;;;;;;19.70;45.40;;;;;;5107465;27;20063;-61
2023/12/15 05:46:14;;;;;;;;;;;19.70;45.40;;;;;;5126198;27;19930;-61
2023/12/15 05:48:42;;;;;;;;;;;19.70;45.40;;;;;;5106346;27;20448;-61
2023/12/15 05:51:09;;;;;;;;;;;19.70;45.40;;;;;;5104772;28;19924;-62
2023/12/15 05:53:36;;;;;;;;;;;19.70;45.40;;;;;;5120855;27;19946;-62
2023/12/15 05:56:02;;;;;;;;;;;19.70;45.40;;;;;;5101917;28;19924;-62
2023/12/15 05:58:29;;;;;;;;;;;19.70;45.40;;;;;;5102125;27;19946;-62
2023/12/15 06:00:56;;;;;;;;;;;19.70;45.40;;;;;;5105617;27;20055;-61
2023/12/15 06:03:23;;;;;;;;;;;19.70;45.40;;;;;;5116626;27;19923;-62
2023/12/15 06:05:51;;;;;;;;;;;19.70;45.40;;;;;;5104336;27;19923;-61
2023/12/15 06:08:17;;;;;;;;;;;19.70;45.40;;;;;;5105900;27;19942;-62
2023/12/15 06:10:44;;;;;;;;;;;19.70;45.40;;;;;;5105675;27;19928;-62
2023/12/15 06:13:11;;;;;;;;;;;19.70;45.40;;;;;;5101539;27;19923;-61
2023/12/15 06:15:38;;;;;;;;;;;19.70;45.40;;;;;;5101047;27;19993;-61
2023/12/15 06:18:05;;;;;;;;;;;19.70;45.40;;;;;;5116936;27;19924;-61
2023/12/15 06:20:31;;;;;;;;;;;19.70;45.40;;;;;;5096460;27;19931;-61
2023/12/15 06:23:00;;;;;;;;;;;19.70;45.40;;;;;;5122304;27;19932;-61
2023/12/15 06:25:27;;;;;;;;;;;19.70;45.40;;;;;;5101386;27;19931;-61
2023/12/15 06:27:53;;;;;;;;;;;19.70;45.40;;;;;;5103435;27;19924;-61
2023/12/15 06:30:20;;;;;;;;;;;19.70;45.40;;;;;;5104111;27;19962;-61
2023/12/15 06:32:47;;;;;;;;;;;19.70;45.40;;;;;;5101933;27;19928;-61
2023/12/15 06:35:15;;;;;;;;;;;19.70;45.40;;;;;;5103796;27;19973;-61
2023/12/15 06:37:42;;;;;;;;;;;19.70;45.40;;;;;;5099818;27;19924;-61
2023/12/15 06:40:10;;;;;;;;;;;19.70;45.40;;;;;;5104122;27;19931;-62
2023/12/15 06:42:37;;;;;;;;;;;19.70;45.40;;;;;;5099691;28;19996;-61
2023/12/15 06:45:07;;;;;;;;;;;19.70;45.40;;;;;;5101094;27;19932;-61
2023/12/15 06:47:35;;;;;;;;;;;19.70;45.40;;;;;;5104118;27;20004;-61
2023/12/15 06:50:01;;;;;;;;;;;19.70;45.40;;;;;;5101655;27;20081;-61
2023/12/15 06:52:27;;;;;;;;;;;19.70;45.40;;;;;;5100792;28;19923;-61
2023/12/15 06:54:54;;;;;;;;;;;19.70;45.40;;;;;;5120748;27;19972;-61
2023/12/15 06:57:22;;;;;;;;;;;19.70;45.40;;;;;;5098803;27;20022;-61
2023/12/15 06:59:49;;;;;;;;;;;19.70;45.40;;;;;;5105333;27;19927;-61
2023/12/15 07:02:15;;;;;;;;;;;19.70;45.40;;;;;;5125143;27;19923;-61
2023/12/15 07:04:42;;;;;;;;;;;19.70;45.40;;;;;;5115219;27;19924;-62
2023/12/15 07:07:09;;;;;;;;;;;19.70;45.40;;;;;;5099870;28;19939;-61
2023/12/15 07:09:36;;;;;;;;;;;19.70;45.50;;;;;;5101605;27;19927;-61
2023/12/15 07:12:02;;;;;;;;;;;19.70;45.40;;;;;;5097233;28;19935;-59
2023/12/15 07:14:31;;;;;;;;;;;19.70;45.50;;;;;;5115409;27;19935;-58
2023/12/15 07:16:57;;;;;;;;;;;19.70;44.00;;;;;;5107821;28;20430;-58
2023/12/15 07:19:24;;;;;;;;;;;19.60;41.00;;;;;;5099965;28;19935;-60
2023/12/15 07:21:51;;;;;;;;;;;19.40;39.40;;;;;;5112259;28;19931;-58
2023/12/15 07:24:17;;;;;;;;;;;19.30;39.10;;;;;;5098813;28;19931;-61
2023/12/15 07:26:44;;;;;;;;;;;19.00;39.10;;;;;;5105891;28;19976;-60
2023/12/15 07:29:11;;;;;;;;;;;18.80;40.30;;;;;;5100370;27;19972;-60
2023/12/15 07:31:39;;;;;;;;;;;18.70;41.10;;;;;;5101478;28;19924;-60
2023/12/15 07:34:06;;;;;;;;;;;18.70;41.70;;;;;;5106831;28;19928;-60
2023/12/15 07:36:33;;;;;;;;;;;18.70;42.00;;;;;;5100575;28;19924;-61
2023/12/15 07:39:00;;;;;;;;;;;18.70;42.20;;;;;;5102128;28;20026;-61
2023/12/15 07:41:27;;;;;;;;;;;18.70;42.50;;;;;;5093114;28;20001;-60
2023/12/15 07:43:53;;;;;;;;;;;18.80;42.70;;;;;;5110208;28;19931;-61
2023/12/15 07:46:20;;;;;;;;;;;18.80;42.80;;;;;;5100782;28;19924;-59
2023/12/15 07:48:48;;;;;;;;;;;18.90;42.90;;;;;;5104555;28;19932;-60
2023/12/15 07:51:18;;;;;;;;;;;18.90;43.00;;;;;;5107638;28;19923;-61
2023/12/15 07:53:46;;;;;;;;;;;18.90;43.10;;;;;;5094220;28;19976;-61
2023/12/15 07:56:19;;;;;;;;;;;19.00;43.20;;;;;;5100144;28;20026;-61
2023/12/15 07:58:46;;;;;;;;;;;19.00;43.30;;;;;;5100785;28;19985;-60
2023/12/15 08:01:13;;;;;;;;;;;19.00;43.30;;;;;;5097193;28;19931;-60
2023/12/15 08:03:39;;;;;;;;;;;19.00;43.30;;;;;;5113457;28;20409;-60
2023/12/15 08:06:08;;;;;;;;;;;19.10;43.40;;;;;;5088938;28;20201;-61
2023/12/15 08:08:35;;;;;;;;;;;19.10;43.50;;;;;;5094446;28;19930;-61
2023/12/15 08:11:02;;;;;;;;;;;19.10;43.50;;;;;;5098846;28;19934;-60
2023/12/15 08:13:28;;;;;;;;;;;19.20;43.70;;;;;;5101613;27;19973;-61
2023/12/15 08:15:55;;;;;;;;;;;19.20;43.70;;;;;;5113013;27;19970;-62
2023/12/15 08:18:22;;;;;;;;;;;19.20;43.80;;;;;;5107030;27;19924;-61
2023/12/15 08:20:50;;;;;;;;;;;19.20;43.80;;;;;;5104004;28;19924;-61
2023/12/15 08:23:18;;;;;;;;;;;19.30;43.90;;;;;;5112264;27;19924;-61
2023/12/15 08:25:44;;;;;;;;;;;19.30;43.90;;;;;;5099580;27;19992;-60
2023/12/15 08:28:11;;;;;;;;;;;19.30;43.90;;;;;;5102987;28;19932;-61
2023/12/15 08:30:38;;;;;;;;;;;19.30;44.00;;;;;;5101904;28;19999;-61
2023/12/15 08:33:05;;;;;;;;;;;19.40;44.10;;;;;;5105250;28;19928;-61
2023/12/15 08:35:32;;;;;;;;;;;19.40;44.20;;;;;;5114766;27;19926;-61
2023/12/15 08:37:58;;;;;;;;;;;19.40;44.20;;;;;;5108923;28;19977;-62
2023/12/15 08:40:27;;;;;;;;;;;19.40;44.20;;;;;;5101679;27;19932;-61
2023/12/15 08:42:54;;;;;;;;;;;19.40;44.20;;;;;;5110634;27;19993;-61
2023/12/15 08:45:20;;;;;;;;;;;19.40;44.30;;;;;;5101908;28;20016;-61
2023/12/15 08:47:48;;;;;;;;;;;19.40;44.30;;;;;;5104828;27;19935;-62
2023/12/15 08:50:15;;;;;;;;;;;19.50;44.50;;;;;;5096833;28;19931;-62
2023/12/15 08:52:43;;;;;;;;;;;19.50;44.40;;;;;;5105280;27;19927;-62
2023/12/15 08:55:10;;;;;;;;;;;19.50;44.50;;;;;;5100707;27;19927;-61
2023/12/15 08:57:38;;;;;;;;;;;19.50;44.50;;;;;;5108138;27;19936;-62
2023/12/15 09:00:04;;;;;;;;;;;19.50;44.50;;;;;;5105235;27;19931;-61
2023/12/15 09:02:31;;;;;;;;;;;19.50;44.60;;;;;;5098610;28;19928;-61
2023/12/15 09:04:58;;;;;;;;;;;19.50;44.50;;;;;;5100755;27;19932;-61
2023/12/15 09:07:24;;;;;;;;;;;19.50;44.60;;;;;;5089378;28;19923;-62
2023/12/15 09:09:51;;;;;;;;;;;19.50;44.60;;;;;;5103769;27;19928;-61
2023/12/15 09:12:18;;;;;;;;;;;19.60;44.70;;;;;;5111832;27;19935;-62
2023/12/15 09:14:47;;;;;;;;;;;19.60;44.70;;;;;;5112622;27;19932;-61
2023/12/15 09:17:14;;;;;;;;;;;19.60;44.70;;;;;;5126077;27;19999;-61
2023/12/15 09:19:40;;;;;;;;;;;19.60;44.70;;;;;;5119060;27;19949;-60
2023/12/15 09:22:07;;;;;;;;;;;19.60;44.70;;;;;;5114273;27;20165;-60
2023/12/15 09:24:34;;;;;;;;;;;19.60;44.80;;;;;;5094151;27;19935;-60
2023/12/15 09:27:01;;;;;;;;;;;19.60;44.80;;;;;;5091811;27;19938;-61
2023/12/15 09:29:28;;;;;;;;;;;19.60;44.80;;;;;;5098144;28;19930;-60
2023/12/15 09:31:56;;;;;;;;;;;19.60;44.80;;;;;;5093997;27;19939;-60
2023/12/15 09:34:23;;;;;;;;;;;19.60;44.90;;;;;;5090105;27;19928;-61
2023/12/15 09:36:50;;;;;;;;;;;19.70;45.00;;;;;;5098654;27;20464;-61
2023/12/15 09:39:17;;;;;;;;;;;19.70;45.00;;;;;;5102269;27;19927;-61
2023/12/15 09:41:43;;;;;;;;;;;19.70;45.00;;;;;;5082501;27;19928;-60
2023/12/15 09:44:10;;;;;;;;;;;19.70;45.00;;;;;;5081500;27;20205;-61
2023/12/15 09:46:37;;;;;;;;;;;19.70;45.10;;;;;;5097409;27;19927;-61
2023/12/15 09:49:05;;;;;;;;;;;19.70;45.00;;;;;;5113852;27;19957;-60
2023/12/15 09:51:32;;;;;;;;;;;19.70;45.00;;;;;;5087160;27;19946;-60
2023/12/15 09:53:59;;;;;;;;;;;19.70;45.10;;;;;;5086913;27;19958;-61
2023/12/15 09:56:26;;;;;;;;;;;19.70;45.10;;;;;;5094147;27;19932;-60
2023/12/15 09:58:53;;;;;;;;;;;19.80;45.20;;;;;;5094124;28;19924;-61
2023/12/15 10:01:20;;;;;;;;;;;19.80;45.20;;;;;;5105853;28;19931;-61
2023/12/15 10:03:47;;;;;;;;;;;19.80;45.20;;;;;;5099492;28;19936;-61
2023/12/15 10:06:15;;;;;;;;;;;19.80;45.20;;;;;;5096741;27;20018;-62
2023/12/15 10:08:42;;;;;;;;;;;19.80;45.20;;;;;;5094213;28;19924;-62
2023/12/15 10:11:09;;;;;;;;;;;19.80;45.20;;;;;;5099262;28;20022;-62
2023/12/15 10:13:36;;;;;;;;;;;19.80;45.30;;;;;;5113965;27;19927;-62
2023/12/15 10:16:03;;;;;;;;;;;19.80;45.30;;;;;;5091107;28;19969;-60
2023/12/15 10:18:29;;;;;;;;;;;19.80;45.30;;;;;;5117406;27;19924;-60
2023/12/15 10:20:56;;;;;;;;;;;19.80;45.30;;;;;;5104815;27;19949;-61
2023/12/15 10:23:28;;;;;;;;;;;19.80;45.30;;;;;;5100441;28;19945;-61
2023/12/15 10:25:54;;;;;;;;;;;19.80;45.40;;;;;;5087748;27;20014;-62
2023/12/15 10:28:22;;;;;;;;;;;19.90;45.40;;;;;;5105371;27;19932;-61
2023/12/15 10:30:50;;;;;;;;;;;19.90;45.50;;;;;;5091562;27;19920;-60
2023/12/15 10:33:16;;;;;;;;;;;19.90;45.50;;;;;;5100806;27;19968;-60
2023/12/15 10:35:43;;;;;;;;;;;19.90;45.50;;;;;;5095998;27;19919;-61
2023/12/15 10:38:10;;;;;;;;;;;19.80;45.40;;;;;;5115757;27;19923;-61
2023/12/15 10:40:38;;;;;;;;;;;19.90;45.50;;;;;;5094969;28;19924;-60
2023/12/15 10:43:05;;;;;;;;;;;19.90;45.50;;;;;;5117274;27;19965;-61
2023/12/15 10:45:32;;;;;;;;;;;19.90;45.50;;;;;;5101814;27;19923;-62
2023/12/15 10:47:59;;;;;;;;;;;19.90;45.60;;;;;;5098125;27;19974;-62
2023/12/15 10:50:26;;;;;;;;;;;19.90;45.60;;;;;;5090520;28;19928;-62
2023/12/15 10:52:52;;;;;;;;;;;19.90;45.60;;;;;;5115978;27;19930;-63
2023/12/15 10:55:20;;;;;;;;;;;19.90;45.60;;;;;;5096848;27;20270;-61
2023/12/15 10:57:48;;;;;;;;;;;19.90;45.60;;;;;;5097789;28;19923;-62
2023/12/15 11:00:17;;;;;;;;;;;19.90;45.60;;;;;;5112841;28;19930;-62
2023/12/15 11:02:44;;;;;;;;;;;19.90;45.60;;;;;;5113388;27;19924;-61
2023/12/15 11:05:11;;;;;;;;;;;20.00;45.70;;;;;;5100352;28;20034;-63
2023/12/15 11:07:39;;;;;;;;;;;20.00;45.70;;;;;;5121610;27;19923;-62
2023/12/15 11:10:08;;;;;;;;;;;20.00;45.70;;;;;;5102560;27;19941;-62
2023/12/15 11:12:36;;;;;;;;;;;20.00;45.70;;;;;;5116664;27;19931;-63
2023/12/15 11:15:05;;;;;;;;;;;20.00;45.80;;;;;;5099840;28;19928;-63
2023/12/15 11:17:32;;;;;;;;;;;20.00;45.70;;;;;;5123342;27;19927;-62
2023/12/15 11:20:02;;;;;;;;;;;20.00;45.80;;;;;;5122015;27;20403;-62
2023/12/15 11:22:29;;;;;;;;;;;20.00;46.40;;;;;;5091559;28;19928;-60
2023/12/15 11:24:57;;;;;;;;;;;19.90;45.70;;;;;;5087833;28;19938;-62
2023/12/15 11:27:24;;;;;;;;;;;20.00;45.80;;;;;;5115147;28;19963;-62
2023/12/15 11:29:51;;;;;;;;;;;20.00;45.80;;;;;;5090508;28;19923;-60
2023/12/15 11:32:39;;;;;;;;;;;20.00;45.80;;;;;;5111691;28;19934;-62
2023/12/15 11:35:06;;;;;;;;;;;20.00;45.80;;;;;;5102449;28;19923;-62
2023/12/15 11:37:33;;;;;;;;;;;20.00;45.80;;;;;;5085951;28;19924;-63
2023/12/15 11:40:00;;;;;;;;;;;20.00;45.80;;;;;;5117244;28;19931;-64
2023/12/15 11:42:27;;;;;;;;;;;20.00;45.80;;;;;;5098925;28;19931;-62
2023/12/15 11:44:53;;;;;;;;;;;20.00;45.80;;;;;;5114757;27;19948;-62
2023/12/15 11:47:21;;;;;;;;;;;20.00;45.90;;;;;;5104223;27;20003;-61
2023/12/15 11:49:49;;;;;;;;;;;20.00;46.40;;;;;;5103551;27;19995;-61
2023/12/15 11:52:16;;;;;;;;;;;20.00;45.90;;;;;;5123257;27;19934;-62
2023/12/15 11:54:43;;;;;;;;;;;20.00;45.90;;;;;;5111734;27;19934;-61
2023/12/15 11:57:10;;;;;;;;;;;20.00;45.90;;;;;;5117097;27;19928;-60
2023/12/15 11:59:39;;;;;;;;;;;20.00;45.90;;;;;;5106330;27;19927;-61
2023/12/15 12:02:06;;;;;;;;;;;20.00;45.90;;;;;;5107668;27;19932;-63
2023/12/15 12:04:33;;;;;;;;;;;20.00;45.90;;;;;;5107606;27;19932;-64
2023/12/15 12:07:01;;;;;;;;;;;20.00;45.90;;;;;;5106616;27;19920;-63
2023/12/15 12:09:28;;;;;;;;;;;20.10;46.00;;;;;;5103888;27;20285;-62
2023/12/15 12:11:56;;;;;;;;;;;20.10;46.00;;;;;;5110087;27;19927;-60
2023/12/15 12:14:24;;;;;;;;;;;20.00;45.90;;;;;;5125981;27;19932;-61
2023/12/15 12:16:52;;;;;;;;;;;20.10;46.00;;;;;;5127892;27;19940;-62
2023/12/15 12:19:21;;;;;;;;;;;20.10;46.10;;;;;;5102855;27;19925;-62
2023/12/15 12:21:48;;;;;;;;;;;20.00;45.90;;;;;;5122968;27;20158;-61
2023/12/15 12:24:17;;;;;;;;;;;20.00;45.90;;;;;;5099257;27;19958;-62
2023/12/15 12:26:46;;;;;;;;;;;20.10;46.00;;;;;;5100495;27;19928;-62
2023/12/15 12:29:13;;;;;;;;;;;20.10;46.00;;;;;;5103203;28;19931;-62
2023/12/15 12:31:40;;;;;;;;;;;20.10;46.10;;;;;;5094484;28;19939;-62
2023/12/15 12:34:07;;;;;;;;;;;20.10;46.10;;;;;;5097027;27;19928;-63
2023/12/15 12:36:35;;;;;;;;;;;20.10;46.10;;;;;;5097043;28;20388;-62
2023/12/15 12:39:02;;;;;;;;;;;20.10;46.10;;;;;;5098223;28;20069;-62
2023/12/15 12:41:32;;;;;;;;;;;20.10;46.10;;;;;;5104623;28;19924;-61
2023/12/15 12:43:59;;;;;;;;;;;20.10;46.10;;;;;;5097257;28;19927;-59
2023/12/15 12:46:26;;;;;;;;;;;20.10;46.10;;;;;;5101459;28;19939;-62
2023/12/15 12:48:53;;;;;;;;;;;20.10;46.10;;;;;;5109966;27;19981;-62
2023/12/15 12:51:19;;;;;;;;;;;20.10;46.10;;;;;;5095853;28;19924;-62
2023/12/15 12:53:47;;;;;;;;;;;20.10;46.10;;;;;;5098990;28;20320;-60
2023/12/15 12:56:14;;;;;;;;;;;20.10;46.10;;;;;;5098453;28;19932;-61
2023/12/15 12:58:42;;;;;;;;;;;20.10;46.10;;;;;;5109961;28;19930;-60
2023/12/15 13:01:09;;;;;;;;;;;20.10;46.10;;;;;;5099003;27;19928;-61
2023/12/15 13:03:36;;;;;;;;;;;20.10;46.10;;;;;;5101698;27;19924;-60
2023/12/15 13:06:03;;;;;;;;;;;20.10;46.10;;;;;;5101008;28;19946;-61
2023/12/15 13:08:30;;;;;;;;;;;20.10;46.10;;;;;;5101710;28;19923;-61
2023/12/15 13:10:57;;;;;;;;;;;20.10;46.20;;;;;;5102530;27;19931;-61
2023/12/15 13:13:23;;;;;;;;;;;20.10;46.10;;;;;;5099418;27;19947;-61
2023/12/15 13:15:51;;;;;;;;;;;20.10;46.20;;;;;;5097468;27;19939;-61
2023/12/15 13:18:18;;;;;;;;;;;20.10;46.20;;;;;;5103240;27;19935;-61
2023/12/15 13:20:45;;;;;;;;;;;20.10;46.20;;;;;;5106559;27;19928;-61
2023/12/15 13:23:12;;;;;;;;;;;20.10;46.20;;;;;;5095762;28;19931;-62
2023/12/15 13:25:39;;;;;;;;;;;20.10;46.20;;;;;;5092401;28;19924;-61
2023/12/15 13:28:06;;;;;;;;;;;20.10;46.50;;;;;;5095553;28;19935;-62
2023/12/15 13:30:31;;;;;;;;;;;20.20;46.30;;;;;;5090768;28;19931;-62
2023/12/15 13:33:00;;;;;;;;;;;20.10;46.20;;;;;;5091894;28;19928;-62
2023/12/15 13:35:26;;;;;;;;;;;20.10;46.20;;;;;;5105748;27;19934;-61
2023/12/15 13:37:53;;;;;;;;;;;20.10;46.20;;;;;;5094150;28;19927;-61
2023/12/15 13:40:20;;;;;;;;;;;20.20;46.30;;;;;;5102895;28;20448;-61
2023/12/15 13:42:47;;;;;;;;;;;20.10;46.20;;;;;;5090534;28;19924;-62
2023/12/15 13:45:14;;;;;;;;;;;20.10;46.20;;;;;;5093352;28;19963;-62
2023/12/15 13:47:41;;;;;;;;;;;20.10;46.20;;;;;;5090900;28;19931;-61
2023/12/15 13:50:09;;;;;;;;;;;20.10;46.30;;;;;;5093468;28;19924;-62
2023/12/15 13:52:36;;;;;;;;;;;20.20;46.40;;;;;;5088110;28;20466;-62
2023/12/15 13:55:04;;;;;;;;;;;20.20;46.30;;;;;;5099292;28;19962;-61
2023/12/15 13:57:30;;;;;;;;;;;20.20;46.30;;;;;;5107488;27;19924;-61
2023/12/15 13:59:57;;;;;;;;;;;20.10;46.20;;;;;;5094120;28;19931;-62
2023/12/15 14:02:24;;;;;;;;;;;20.10;46.20;;;;;;5091791;28;19934;-62
2023/12/15 14:04:51;;;;;;;;;;;20.10;46.20;;;;;;5076943;28;19958;-61
2023/12/15 14:07:19;;;;;;;;;;;20.10;46.20;;;;;;5090777;28;19928;-61
2023/12/15 14:09:47;;;;;;;;;;;20.10;46.20;;;;;;5084933;28;19927;-60
2023/12/15 14:12:14;;;;;;;;;;;20.20;46.30;;;;;;5087948;28;19931;-63
2023/12/15 14:14:41;;;;;;;;;;;20.10;46.20;;;;;;5086901;28;19928;-63